createdAt,value
2022-12-18T00:02:15.810Z,93.99
2022-12-18T00:04:42.366Z,93.78
2022-12-18T00:07:08.768Z,93.47
2022-12-18T00:09:40.074Z,93.25
2022-12-18T00:14:45.344Z,93.44
2022-12-18T00:17:12.142Z,93.67
2022-12-18T00:19:38.602Z,93.63
2022-12-18T00:22:06.054Z,93.29
2022-12-18T00:24:32.560Z,93.50
2022-12-18T00:26:58.996Z,93.64
2022-12-18T00:29:25.406Z,93.60
2022-12-18T00:31:51.943Z,93.56
2022-12-18T00:34:18.476Z,93.60
2022-12-18T00:36:44.929Z,93.88
2022-12-18T00:39:12.776Z,93.40
2022-12-18T00:41:57.892Z,93.73
2022-12-18T00:44:24.350Z,93.61
2022-12-18T00:46:50.751Z,93.61
2022-12-18T00:49:19.892Z,93.53
2022-12-18T00:51:46.899Z,93.67
2022-12-18T00:54:13.893Z,93.86
2022-12-18T00:56:48.196Z,93.98
2022-12-18T00:59:15.576Z,93.65
2022-12-18T01:01:42.210Z,93.63
2022-12-18T01:04:09.179Z,93.69
2022-12-18T01:06:35.735Z,93.57
2022-12-18T01:09:03.141Z,93.85
2022-12-18T01:11:29.789Z,93.92
2022-12-18T01:13:56.474Z,93.93
2022-12-18T01:16:23.088Z,94.14
2022-12-18T01:18:53.401Z,93.25
2022-12-18T01:21:20.219Z,93.41
2022-12-18T01:23:47.391Z,93.74
2022-12-18T01:26:17.349Z,93.63
2022-12-18T01:28:44.782Z,93.94
2022-12-18T01:31:14.296Z,93.84
2022-12-18T01:33:41.568Z,93.53
2022-12-18T01:36:15.196Z,93.59
2022-12-18T01:38:41.990Z,93.26
2022-12-18T01:41:09.777Z,93.58
2022-12-18T01:43:47.455Z,93.56
2022-12-18T01:46:14.832Z,93.53
2022-12-18T01:48:42.066Z,93.71
2022-12-18T01:51:11.539Z,93.39
2022-12-18T01:53:41.581Z,93.61
2022-12-18T01:56:09.862Z,93.57
2022-12-18T01:58:47.420Z,93.62
2022-12-18T02:01:14.256Z,93.60
2022-12-18T02:03:45.257Z,93.16
2022-12-18T02:06:29.040Z,93.16
2022-12-18T02:09:14.991Z,93.00
2022-12-18T02:11:41.405Z,93.15
2022-12-18T02:14:39.293Z,93.41
2022-12-18T02:17:38.083Z,93.43
2022-12-18T02:20:46.117Z,93.10
2022-12-18T02:23:40.692Z,93.35
2022-12-18T02:26:45.657Z,93.24
2022-12-18T02:29:28.436Z,93.07
2022-12-18T02:32:01.705Z,92.95
2022-12-18T02:34:32.072Z,93.02
2022-12-18T02:37:01.149Z,92.99
2022-12-18T02:39:30.354Z,93.05
2022-12-18T02:41:58.524Z,92.73
2022-12-18T02:44:24.958Z,92.84
2022-12-18T02:46:53.819Z,92.64
2022-12-18T02:49:30.595Z,93.20
2022-12-18T02:52:08.345Z,93.28
2022-12-18T02:55:04.015Z,93.30
2022-12-18T02:57:45.920Z,92.91
2022-12-18T03:00:19.540Z,92.49
2022-12-18T03:03:06.708Z,92.33
2022-12-18T03:06:13.569Z,93.02
2022-12-18T03:08:48.081Z,93.13
2022-12-18T03:11:15.215Z,92.65
2022-12-18T03:13:51.182Z,92.61
2022-12-18T03:16:25.708Z,92.90
2022-12-18T03:19:00.644Z,92.73
2022-12-18T03:21:43.556Z,92.82
2022-12-18T03:24:11.946Z,92.62
2022-12-18T03:26:43.890Z,92.73
2022-12-18T03:29:19.949Z,92.51
2022-12-18T03:31:52.428Z,92.70
2022-12-18T03:34:25.318Z,92.69
2022-12-18T03:36:51.898Z,92.38
2022-12-18T03:39:18.678Z,92.30
2022-12-18T03:41:52.064Z,92.06
2022-12-18T03:44:30.504Z,92.41
2022-12-18T03:47:14.413Z,92.29
2022-12-18T03:50:01.926Z,91.97
2022-12-18T03:52:37.926Z,92.10
2022-12-18T03:55:08.059Z,92.15
2022-12-18T03:57:35.137Z,92.19
2022-12-18T04:00:07.648Z,92.00
2022-12-18T04:02:36.001Z,91.77
2022-12-18T04:05:06.531Z,91.90
2022-12-18T04:07:34.063Z,91.93
2022-12-18T04:10:04.082Z,92.00
2022-12-18T04:12:31.211Z,91.66
2022-12-18T04:14:57.917Z,92.10
2022-12-18T04:17:24.861Z,91.85
2022-12-18T04:19:51.483Z,91.75
2022-12-18T04:22:18.015Z,92.13
2022-12-18T04:24:44.528Z,91.79
2022-12-18T04:27:10.994Z,91.71
2022-12-18T04:29:37.518Z,91.76
2022-12-18T04:32:04.115Z,91.94
2022-12-18T04:34:30.574Z,91.68
2022-12-18T04:36:57.384Z,91.55
2022-12-18T04:39:24.018Z,91.81
2022-12-18T04:41:51.240Z,91.69
2022-12-18T04:44:18.611Z,91.58
2022-12-18T04:46:45.116Z,91.45
2022-12-18T04:49:11.790Z,91.63
2022-12-18T04:51:38.449Z,91.62
2022-12-18T04:54:04.907Z,91.94
2022-12-18T04:56:32.831Z,91.27
2022-12-18T04:58:59.281Z,91.79
2022-12-18T05:01:30.950Z,91.66
2022-12-18T05:04:01.069Z,91.67
2022-12-18T05:06:27.595Z,91.63
2022-12-18T05:08:54.077Z,91.61
2022-12-18T05:11:20.642Z,91.63
2022-12-18T05:13:47.157Z,91.65
2022-12-18T05:16:17.154Z,91.27
2022-12-18T05:18:43.866Z,91.66
2022-12-18T05:21:10.433Z,91.88
2022-12-18T05:23:37.388Z,91.61
2022-12-18T05:26:06.698Z,91.79
2022-12-18T05:28:35.837Z,91.72
2022-12-18T05:31:04.185Z,91.46
2022-12-18T05:33:33.764Z,91.22
2022-12-18T05:36:06.622Z,91.63
2022-12-18T05:38:35.632Z,91.36
2022-12-18T05:41:03.014Z,91.75
2022-12-18T05:43:29.903Z,91.48
2022-12-18T05:45:58.825Z,91.25
2022-12-18T05:48:25.800Z,91.44
2022-12-18T05:50:52.534Z,90.78
2022-12-18T05:53:21.282Z,91.14
2022-12-18T05:55:48.500Z,91.22
2022-12-18T05:58:15.640Z,90.78
2022-12-18T06:00:47.056Z,91.37
2022-12-18T06:03:14.967Z,91.13
2022-12-18T06:05:47.834Z,91.58
2022-12-18T06:08:14.821Z,90.77
2022-12-18T06:10:42.299Z,91.27
2022-12-18T06:13:09.700Z,91.40
2022-12-18T06:15:39.406Z,91.30
2022-12-18T06:18:05.930Z,91.10
2022-12-18T06:20:33.754Z,91.11
2022-12-18T06:23:00.789Z,91.24
2022-12-18T06:25:27.288Z,91.35
2022-12-18T06:27:53.778Z,91.46
2022-12-18T06:30:20.535Z,90.95
2022-12-18T06:32:54.605Z,91.23
2022-12-18T06:35:23.193Z,91.36
2022-12-18T06:37:49.725Z,91.02
2022-12-18T06:40:16.381Z,91.25
2022-12-18T06:42:43.128Z,90.77
2022-12-18T06:45:10.034Z,91.23
2022-12-18T06:47:36.638Z,90.92
2022-12-18T06:50:03.762Z,91.17
2022-12-18T06:52:33.099Z,91.07
2022-12-18T06:54:59.505Z,91.21
2022-12-18T06:57:25.949Z,91.54
2022-12-18T06:59:52.423Z,91.11
2022-12-18T07:02:18.981Z,91.12
2022-12-18T07:04:45.434Z,91.15
2022-12-18T07:07:11.954Z,91.13
2022-12-18T07:09:38.629Z,91.29
2022-12-18T07:12:05.946Z,90.99
2022-12-18T07:14:32.325Z,91.59
2022-12-18T07:16:58.883Z,91.21
2022-12-18T07:19:26.515Z,91.10
2022-12-18T07:21:52.974Z,91.29
2022-12-18T07:24:19.491Z,91.26
2022-12-18T07:26:49.368Z,91.00
2022-12-18T07:29:15.826Z,91.11
2022-12-18T07:31:42.376Z,90.99
2022-12-18T07:34:15.986Z,91.58
2022-12-18T07:36:42.604Z,91.67
2022-12-18T07:39:09.122Z,91.76
2022-12-18T07:41:35.492Z,91.13
2022-12-18T07:44:01.826Z,91.42
2022-12-18T07:46:28.220Z,91.44
2022-12-18T07:48:54.580Z,91.68
2022-12-18T07:51:21.082Z,91.60
2022-12-18T07:53:51.310Z,91.51
2022-12-18T07:56:28.746Z,91.25
2022-12-18T07:58:57.333Z,91.82
2022-12-18T08:01:24.169Z,91.79
2022-12-18T08:03:52.207Z,91.76
2022-12-18T08:06:18.946Z,91.37
2022-12-18T08:08:45.282Z,91.80
2022-12-18T08:11:11.650Z,91.72
2022-12-18T08:13:38.449Z,92.08
2022-12-18T08:16:10.196Z,91.56
2022-12-18T08:18:37.912Z,92.04
2022-12-18T08:21:13.456Z,91.78
2022-12-18T08:23:43.103Z,92.02
2022-12-18T08:26:11.651Z,92.63
2022-12-18T08:28:38.048Z,92.61
2022-12-18T08:31:05.166Z,92.62
2022-12-18T08:33:31.844Z,92.79
2022-12-18T08:35:59.710Z,92.71
2022-12-18T08:38:26.177Z,92.69
2022-12-18T08:41:08.228Z,92.27
2022-12-18T08:43:56.274Z,92.50
2022-12-18T08:46:24.774Z,92.61
2022-12-18T08:48:52.381Z,92.44
2022-12-18T08:51:19.313Z,92.33
2022-12-18T08:53:46.446Z,92.21
2022-12-18T08:56:13.855Z,92.84
2022-12-18T08:58:43.394Z,92.63
2022-12-18T09:01:12.092Z,92.90
2022-12-18T09:03:41.807Z,92.88
2022-12-18T09:06:10.095Z,92.77
2022-12-18T09:08:37.975Z,92.79
2022-12-18T09:11:04.896Z,93.04
2022-12-18T09:13:31.883Z,92.68
2022-12-18T09:15:58.370Z,93.09
2022-12-18T09:18:25.285Z,92.86
2022-12-18T09:20:53.748Z,93.73
2022-12-18T09:23:21.346Z,92.86
2022-12-18T09:25:48.459Z,93.88
2022-12-18T09:28:16.974Z,93.49
2022-12-18T09:30:46.107Z,93.60
2022-12-18T09:33:12.561Z,93.77
2022-12-18T09:35:43.593Z,93.87
2022-12-18T09:38:16.504Z,93.56
2022-12-18T09:40:46.292Z,93.88
2022-12-18T09:43:34.637Z,93.97
2022-12-18T09:46:17.189Z,94.21
2022-12-18T09:48:51.613Z,94.28
2022-12-18T09:51:24.639Z,94.38
2022-12-18T09:54:00.037Z,94.32
2022-12-18T09:56:29.862Z,94.06
2022-12-18T09:59:00.469Z,94.19
2022-12-18T10:01:38.969Z,94.17
2022-12-18T10:04:12.889Z,94.36
2022-12-18T10:06:45.760Z,94.24
2022-12-18T10:09:23.994Z,94.49
2022-12-18T10:12:21.883Z,94.42
2022-12-18T10:14:51.137Z,94.14
2022-12-18T10:17:47.191Z,94.09
2022-12-18T10:20:39.560Z,94.31
2022-12-18T10:23:32.951Z,94.17
2022-12-18T10:26:10.390Z,94.08
2022-12-18T10:28:42.000Z,94.09
2022-12-18T10:31:17.766Z,94.28
2022-12-18T10:33:47.009Z,93.66
2022-12-18T10:36:14.201Z,93.96
2022-12-18T10:38:43.645Z,94.16
2022-12-18T10:41:24.111Z,93.89
2022-12-18T10:44:21.586Z,93.95
2022-12-18T10:46:51.284Z,93.76
2022-12-18T10:49:33.751Z,93.77
2022-12-18T10:52:15.885Z,93.54
2022-12-18T10:54:49.117Z,93.58
2022-12-18T10:57:28.525Z,93.71
2022-12-18T10:59:57.200Z,93.79
2022-12-18T11:02:36.518Z,93.40
2022-12-18T11:05:24.058Z,93.44
2022-12-18T11:07:52.071Z,93.22
2022-12-18T11:10:20.783Z,93.17
2022-12-18T11:12:48.097Z,93.20
2022-12-18T11:15:36.981Z,93.21
2022-12-18T11:18:06.355Z,92.74
2022-12-18T11:20:37.038Z,92.50
2022-12-18T11:23:13.994Z,92.47
2022-12-18T11:25:40.761Z,92.20
2022-12-18T11:28:27.164Z,92.17
2022-12-18T11:31:15.604Z,92.19
2022-12-18T11:34:11.911Z,91.84
2022-12-18T11:36:43.201Z,91.56
2022-12-18T11:39:21.588Z,91.68
2022-12-18T11:42:23.545Z,91.58
2022-12-18T11:44:54.866Z,91.36
2022-12-18T11:47:45.034Z,90.90
2022-12-18T11:50:23.170Z,91.08
2022-12-18T11:52:54.403Z,90.90
2022-12-18T11:55:41.946Z,90.65
2022-12-18T11:58:31.982Z,90.50
2022-12-18T12:01:19.460Z,90.28
2022-12-18T12:03:46.134Z,90.20
2022-12-18T12:06:33.070Z,89.77
2022-12-18T12:09:30.267Z,89.86
2022-12-18T12:12:11.940Z,89.65
2022-12-18T12:15:06.519Z,89.60
2022-12-18T12:17:50.127Z,89.56
2022-12-18T12:20:36.132Z,89.18
2022-12-18T12:23:12.274Z,89.70
2022-12-18T12:25:50.296Z,89.24
2022-12-18T12:28:54.058Z,89.15
2022-12-18T12:31:42.353Z,89.33
2022-12-18T12:34:23.548Z,88.90
2022-12-18T12:37:01.847Z,88.83
2022-12-18T12:39:36.066Z,88.39
2022-12-18T12:42:24.143Z,88.43
2022-12-18T12:44:58.240Z,88.36
2022-12-18T12:47:31.770Z,88.12
2022-12-18T12:50:00.309Z,88.34
2022-12-18T12:52:36.784Z,88.32
2022-12-18T12:58:22.700Z,87.91
2022-12-18T13:01:19.989Z,87.72
2022-12-18T13:04:11.557Z,87.61
2022-12-18T13:06:48.515Z,87.71
2022-12-18T13:09:15.351Z,87.68
2022-12-18T13:12:06.623Z,87.57
2022-12-18T13:14:41.121Z,87.89
2022-12-18T13:17:22.775Z,87.30
2022-12-18T13:19:51.500Z,87.03
2022-12-18T13:22:37.969Z,87.21
2022-12-18T13:25:33.571Z,86.98
2022-12-18T13:28:06.882Z,86.99
2022-12-18T13:30:33.215Z,86.78
2022-12-18T13:33:14.958Z,86.54
2022-12-18T13:36:03.687Z,86.81
2022-12-18T13:38:33.280Z,86.75
2022-12-18T13:41:02.955Z,87.02
2022-12-18T13:43:32.477Z,86.96
2022-12-18T13:46:23.729Z,86.58
2022-12-18T13:48:56.402Z,86.07
2022-12-18T13:51:25.146Z,85.97
2022-12-18T13:54:28.905Z,86.33
2022-12-18T13:56:55.403Z,86.06
2022-12-18T13:59:39.192Z,86.21
2022-12-18T14:02:32.191Z,85.60
2022-12-18T14:05:14.596Z,85.54
2022-12-18T14:07:45.132Z,85.30
2022-12-18T14:10:44.451Z,85.14
2022-12-18T14:13:43.555Z,85.23
2022-12-18T14:16:16.286Z,84.85
2022-12-18T14:19:05.216Z,85.18
2022-12-18T14:22:02.087Z,84.79
2022-12-18T14:24:34.604Z,84.44
2022-12-18T14:27:30.674Z,84.77
2022-12-18T14:30:01.736Z,85.13
2022-12-18T14:32:28.252Z,84.68
2022-12-18T14:35:26.414Z,84.50
2022-12-18T14:37:53.341Z,84.49
2022-12-18T14:40:47.380Z,84.56
2022-12-18T14:43:16.201Z,84.38
2022-12-18T14:46:24.218Z,84.01
2022-12-18T14:48:53.169Z,84.36
2022-12-18T14:51:31.735Z,83.88
2022-12-18T14:54:23.005Z,83.39
2022-12-18T14:57:44.441Z,84.06
2022-12-18T15:00:26.649Z,83.29
2022-12-18T15:03:11.391Z,83.36
2022-12-18T15:06:29.657Z,83.28
2022-12-18T15:09:21.470Z,82.88
2022-12-18T15:12:05.485Z,83.17
2022-12-18T15:18:11.872Z,83.20
2022-12-18T15:21:34.141Z,83.35
2022-12-18T15:24:56.134Z,83.22
2022-12-18T15:31:25.370Z,82.66
2022-12-18T15:33:56.817Z,82.68
2022-12-18T15:36:47.921Z,82.60
2022-12-18T15:39:15.033Z,82.66
2022-12-18T15:42:01.574Z,82.42
2022-12-18T15:44:28.418Z,82.43
2022-12-18T15:47:04.076Z,82.41
2022-12-18T15:50:14.956Z,82.61
2022-12-18T15:52:48.222Z,82.45
2022-12-18T15:55:39.942Z,82.22
2022-12-18T15:58:17.982Z,82.37
2022-12-18T16:00:48.873Z,82.15
2022-12-18T16:03:27.713Z,82.26
2022-12-18T16:07:14.470Z,82.22
2022-12-18T16:09:26.031Z,81.82
2022-12-18T16:11:52.872Z,81.85
2022-12-18T16:14:50.335Z,81.92
2022-12-18T16:17:36.122Z,81.88
2022-12-18T16:20:46.887Z,81.50
2022-12-18T16:27:57.044Z,81.99
2022-12-18T16:34:07.453Z,81.54
2022-12-18T16:36:34.638Z,81.50
2022-12-18T16:39:07.180Z,81.31
2022-12-18T16:41:37.372Z,81.15
2022-12-18T16:44:04.617Z,81.37
2022-12-18T16:46:39.172Z,80.89
2022-12-18T16:49:11.680Z,81.12
2022-12-18T16:51:48.159Z,80.82
2022-12-18T16:54:19.013Z,80.59
2022-12-18T16:56:51.249Z,80.55
2022-12-18T16:59:24.522Z,80.52
2022-12-18T17:01:55.786Z,80.71
2022-12-18T17:04:34.963Z,80.43
2022-12-18T17:07:04.818Z,80.46
2022-12-18T17:09:31.461Z,80.67
2022-12-18T17:11:57.980Z,80.67
2022-12-18T17:14:28.458Z,80.44
2022-12-18T17:17:19.894Z,80.64
2022-12-18T17:19:43.498Z,80.55
2022-12-18T17:22:12.946Z,79.65
2022-12-18T17:24:39.699Z,80.00
2022-12-18T17:27:09.055Z,80.14
2022-12-18T17:29:43.949Z,80.15
2022-12-18T17:32:13.483Z,79.90
2022-12-18T17:34:40.818Z,80.09
2022-12-18T17:37:07.639Z,80.15
2022-12-18T17:39:39.426Z,80.16
2022-12-18T17:42:15.621Z,79.76
2022-12-18T17:44:43.046Z,79.62
2022-12-18T17:47:13.576Z,79.71
2022-12-18T17:49:43.497Z,79.66
2022-12-18T17:52:37.359Z,79.83
2022-12-18T17:56:18.611Z,79.57
2022-12-18T17:58:56.401Z,79.32
2022-12-18T18:01:49.924Z,80.14
2022-12-18T18:04:38.123Z,79.50
2022-12-18T18:07:25.690Z,79.89
2022-12-18T18:18:45.719Z,79.90
2022-12-18T18:25:23.586Z,80.05
2022-12-18T18:27:50.724Z,79.99
2022-12-18T18:30:17.314Z,80.34
2022-12-18T18:32:46.040Z,80.01
2022-12-18T18:35:37.534Z,80.07
2022-12-18T18:37:59.165Z,80.29
2022-12-18T18:40:25.575Z,80.38
2022-12-18T18:42:55.967Z,80.32
2022-12-18T18:45:22.360Z,79.93
2022-12-18T18:47:48.744Z,80.07
2022-12-18T18:50:15.141Z,80.39
2022-12-18T18:52:41.607Z,80.16
2022-12-18T18:55:25.236Z,79.75
2022-12-18T18:57:52.050Z,79.97
2022-12-18T19:00:18.756Z,79.96
2022-12-18T19:02:45.774Z,79.99
2022-12-18T19:05:12.313Z,79.35
2022-12-18T19:07:38.775Z,79.61
2022-12-18T19:10:05.748Z,79.75
2022-12-18T19:12:51.333Z,79.60
2022-12-18T19:15:17.737Z,79.44
2022-12-18T19:17:45.983Z,79.57
2022-12-18T19:20:14.275Z,79.41
2022-12-18T19:22:40.655Z,78.97
2022-12-18T19:25:09.305Z,78.97
2022-12-18T19:27:38.844Z,79.45
2022-12-18T19:30:05.917Z,79.57
2022-12-18T19:32:32.472Z,79.52
2022-12-18T19:34:59.144Z,79.41
2022-12-18T19:37:25.749Z,79.15
2022-12-18T19:39:52.714Z,78.84
2022-12-18T19:42:25.524Z,78.70
2022-12-18T19:44:54.601Z,79.42
2022-12-18T19:47:21.007Z,78.63
2022-12-18T19:49:47.464Z,78.77
2022-12-18T19:52:16.063Z,79.14
2022-12-18T19:54:42.560Z,79.00
2022-12-18T19:57:11.431Z,79.13
2022-12-18T19:59:37.970Z,79.87
2022-12-18T20:02:05.599Z,80.72
2022-12-18T20:04:32.174Z,81.10
2022-12-18T20:06:58.901Z,82.06
2022-12-18T20:09:25.396Z,82.46
2022-12-18T20:11:52.893Z,82.49
2022-12-18T20:14:23.400Z,83.35
2022-12-18T20:16:51.340Z,84.27
2022-12-18T20:19:18.450Z,84.48
2022-12-18T20:21:45.417Z,85.10
2022-12-18T20:24:12.896Z,85.22
2022-12-18T20:26:40.449Z,85.71
2022-12-18T20:29:06.867Z,86.57
2022-12-18T20:31:33.368Z,86.87
2022-12-18T20:34:01.664Z,87.17
2022-12-18T20:36:30.643Z,87.66
2022-12-18T20:39:01.487Z,87.92
2022-12-18T20:41:38.154Z,88.10
2022-12-18T20:44:21.644Z,88.37
2022-12-18T20:46:55.514Z,88.74
2022-12-18T20:49:23.187Z,88.97
2022-12-18T20:51:51.659Z,89.75
2022-12-18T20:54:18.056Z,90.19
2022-12-18T20:56:44.520Z,89.74
2022-12-18T20:59:11.338Z,90.37
2022-12-18T21:01:39.018Z,90.81
2022-12-18T21:04:07.917Z,91.17
2022-12-18T21:06:34.702Z,91.71
2022-12-18T21:09:01.312Z,91.56
2022-12-18T21:11:49.159Z,91.52
2022-12-18T21:14:21.869Z,92.08
2022-12-18T21:16:53.301Z,92.52
2022-12-18T21:19:25.466Z,92.48
2022-12-18T21:21:52.799Z,92.97
2022-12-18T21:24:20.092Z,93.23
2022-12-18T21:26:47.888Z,93.18
2022-12-18T21:29:23.489Z,93.47
2022-12-18T21:31:51.497Z,93.55
2022-12-18T21:34:26.419Z,93.73
2022-12-18T21:36:54.187Z,94.10
2022-12-18T21:39:21.473Z,94.40
2022-12-18T21:42:07.910Z,94.78
2022-12-18T21:44:36.145Z,94.28
2022-12-18T21:47:22.070Z,94.44
2022-12-18T21:49:53.209Z,95.07
2022-12-18T21:52:31.378Z,94.84
2022-12-18T21:55:06.242Z,95.15
2022-12-18T21:57:35.625Z,95.49
2022-12-18T22:00:03.013Z,95.79
2022-12-18T22:02:29.665Z,95.93
2022-12-18T22:04:56.216Z,95.63
2022-12-18T22:07:22.969Z,95.79
2022-12-18T22:09:49.591Z,96.20
2022-12-18T22:12:35.106Z,96.21
2022-12-18T22:15:04.373Z,96.50
2022-12-18T22:17:30.888Z,96.67
2022-12-18T22:19:57.511Z,97.06
2022-12-18T22:22:23.956Z,97.05
2022-12-18T22:24:50.349Z,97.01
2022-12-18T22:27:16.745Z,97.34
2022-12-18T22:30:01.507Z,97.37
2022-12-18T22:32:31.413Z,97.20
2022-12-18T22:35:07.192Z,97.85
2022-12-18T22:37:34.618Z,97.82
2022-12-18T22:40:03.301Z,97.61
2022-12-18T22:42:31.330Z,97.97
2022-12-18T22:44:57.758Z,98.25
2022-12-18T22:47:27.999Z,97.97
2022-12-18T22:49:56.388Z,98.06
2022-12-18T22:52:23.824Z,98.62
2022-12-18T22:54:53.316Z,98.43
2022-12-18T22:57:21.580Z,98.35
2022-12-18T22:59:48.145Z,98.36
2022-12-18T23:02:14.705Z,98.51
2022-12-18T23:04:41.328Z,98.43
2022-12-18T23:07:07.750Z,98.59
2022-12-18T23:09:34.513Z,98.91
2022-12-18T23:12:01.646Z,98.97
2022-12-18T23:14:29.342Z,98.69
2022-12-18T23:16:56.350Z,99.04
2022-12-18T23:19:23.823Z,99.23
2022-12-18T23:21:51.152Z,99.11
2022-12-18T23:24:18.163Z,99.55
2022-12-18T23:26:44.600Z,99.61
2022-12-18T23:29:11.139Z,99.21
2022-12-18T23:31:39.034Z,99.88
2022-12-18T23:34:06.767Z,99.74
2022-12-18T23:36:45.349Z,99.83
2022-12-18T23:39:15.315Z,99.41
2022-12-18T23:41:55.888Z,99.58
2022-12-18T23:44:22.330Z,100.00
2022-12-18T23:46:48.803Z,100.00
2022-12-18T23:49:15.324Z,99.77
2022-12-18T23:51:41.722Z,100.00
2022-12-18T23:54:09.290Z,100.00
2022-12-18T23:56:35.765Z,100.00
2022-12-18T23:59:02.222Z,100.00
